Dades meteomassalio
Diari Summary for Agost 17, 2017 Units:  Metric    English   Both
« Previous Day
Next Day »
Diari Semanal Mensual Anual Personalitzat
  Maxima: Minima: Mijana:
Temperatura: -17.8 °C -8.4 °C -2.6 °C
Rosada: -17.8 °C -14.8 °C -11.2 °C
Humitat: Humidity % 19 % 41 %
Velocitat del vent: 0 km/h 0 km/h 7.4 km/h
Racha vent: 0 km/h - -
Vent:- - SE
Pressio: 0 hPa 34347.6 hPa -
Pluja: 0 mm    
Historical Graphs
 
 
Tabular Data for Agost 17, 2017
Time Temperature Dew Point Pressure Wind Wind Speed Wind Gust Humidity Rainfall Rate (Hourly) solar Conditions
-17.8 °C -17.8 °C 0 hPa Calm     Humidity % 0 mm SolarRadiationWatts/m^2 W/m2 Conditions
00:01 -2.3 °C -9.8 °C 34462.7 hPa NW 20.8 km/h 20.8 km/h 44 % 0 mm 0.0 W/m2 CLR
00:06 -2.3 °C -9.8 °C 34462.7 hPa NW 29.8 km/h 29.8 km/h 44 % 0 mm 0.0 W/m2 CLR
00:11 -2.4 °C -9.8 °C 34462.7 hPa Calm     44 % 0 mm 0.0 W/m2 CLR
00:16 -2.4 °C -9.8 °C 34476.3 hPa Calm     44 % 0 mm 0.0 W/m2 CLR
00:21 -2.6 °C -9.8 °C 34476.3 hPa Calm     45 % 0 mm 0.0 W/m2 CLR
00:26 -2.7 °C -9.9 °C 34476.3 hPa Calm     45 % 0 mm 0.0 W/m2 CLR
00:27 -2.7 °C -9.9 °C 34476.3 hPa Calm     45 % 0 mm 0.0 W/m2 CLR
00:32 -2.9 °C -9.9 °C 34476.3 hPa Calm     46 % 0 mm 0.0 W/m2 CLR
00:40 -3.2 °C -9.8 °C 34476.3 hPa Calm     48 % 0 mm 0.0 W/m2 CLR
00:46 -3.3 °C -9.9 °C 34486.4 hPa Calm     48 % 0 mm 0.0 W/m2 CLR
01:14 -3.6 °C -10 °C 34486.4 hPa West 10.3 km/h   49 % 0 mm 0.0 W/m2 CLR
01:30 -3.9 °C -9.8 °C 34486.4 hPa Calm     52 % 0 mm 0.0 W/m2 CLR
01:41 -4.2 °C -9.3 °C 34486.4 hPa Calm     56 % 0 mm 0.0 W/m2 CLR
01:51 -4.4 °C -9.8 °C 34486.4 hPa Calm     55 % 0 mm 0.0 W/m2 CLR
01:56 -4.6 °C -9.9 °C 34486.4 hPa Calm     55 % 0 mm 0.0 W/m2 CLR
02:02 -4.7 °C -10.3 °C 34486.4 hPa Calm     53 % 0 mm 0.0 W/m2 CLR
02:07 -4.7 °C -10.5 °C 34486.4 hPa Calm     52 % 0 mm 0.0 W/m2 CLR
02:12 -4.8 °C -10.1 °C 34486.4 hPa Calm     55 % 0 mm 0.0 W/m2 CLR
02:17 -4.8 °C -9.9 °C 34486.4 hPa Calm     56 % 0 mm 0.0 W/m2 CLR
02:22 -4.9 °C -9.9 °C 34486.4 hPa Calm     57 % 0 mm 0.0 W/m2 CLR
02:27 -4.9 °C -9.9 °C 34486.4 hPa Calm     57 % 0 mm 0.0 W/m2 CLR
02:32 -5.1 °C -10.3 °C 34486.4 hPa Calm     55 % 0 mm 0.0 W/m2 CLR
02:37 -5.2 °C -10.1 °C 34486.4 hPa Calm     57 % 0 mm 0.0 W/m2 CLR
02:42 -5.2 °C -10.2 °C 34486.4 hPa Calm     57 % 0 mm 0.0 W/m2 CLR
02:47 -5.2 °C -10.4 °C 34486.4 hPa Calm     56 % 0 mm 0.0 W/m2 CLR
02:52 -5.3 °C -10.4 °C 34486.4 hPa Calm     56 % 0 mm 0.0 W/m2 CLR
02:57 -5.3 °C -10.7 °C 34486.4 hPa Calm     54 % 0 mm 0.0 W/m2 CLR
03:02 -5.3 °C -10.4 °C 34486.4 hPa Calm     56 % 0 mm 0.0 W/m2 CLR
03:07 -5.4 °C -10.4 °C 34486.4 hPa Calm     57 % 0 mm 0.0 W/m2 CLR
03:12 -5.5 °C -10.3 °C 34486.4 hPa Calm     58 % 0 mm 0.0 W/m2 CLR
03:17 -5.7 °C -10.2 °C 34486.4 hPa Calm     60 % 0 mm 0.0 W/m2 CLR
03:22 -5.7 °C -10.5 °C 34486.4 hPa Calm     58 % 0 mm 0.0 W/m2 CLR
03:27 -5.8 °C -11 °C 34486.4 hPa Calm     55 % 0 mm 0.0 W/m2 CLR
03:32 -5.8 °C -11.2 °C 34486.4 hPa Calm     54 % 0 mm 0.0 W/m2 CLR
03:37 -5.7 °C -11.6 °C 34486.4 hPa Calm     51 % 0 mm 0.0 W/m2 CLR
03:42 -5.7 °C -10.9 °C 34486.4 hPa Calm     55 % 0 mm 0.0 W/m2 CLR
03:47 -5.7 °C -11 °C 34486.4 hPa Calm     55 % 0 mm 0.0 W/m2 CLR
03:52 -5.8 °C -11.2 °C 34486.4 hPa Calm     54 % 0 mm 0.0 W/m2 CLR
03:57 -5.9 °C -11.6 °C 34486.4 hPa Calm     52 % 0 mm 0.0 W/m2 CLR
04:02 -5.9 °C -12.2 °C 34486.4 hPa Calm     49 % 0 mm 0.0 W/m2 CLR
04:07 -5.9 °C -12.1 °C 34496.6 hPa Calm     49 % 0 mm 0.0 W/m2 CLR
04:12 -5.9 °C -11.2 °C 34486.4 hPa Calm     55 % 0 mm 0.0 W/m2 CLR
04:17 -6.2 °C -11.3 °C 34486.4 hPa Calm     55 % 0 mm 0.0 W/m2 CLR
04:22 -6.3 °C -11.6 °C 34496.6 hPa Calm     55 % 0 mm 0.0 W/m2 CLR
04:27 -6.4 °C -11.4 °C 34496.6 hPa Calm     56 % 0 mm 0.0 W/m2 CLR
04:32 -6.5 °C -11.5 °C 34496.6 hPa Calm     56 % 0 mm 0.0 W/m2 CLR
04:37 -6.6 °C -11.4 °C 34496.6 hPa Calm     57 % 0 mm 0.0 W/m2 CLR
04:42 -6.6 °C -11.5 °C 34496.6 hPa Calm     57 % 0 mm 0.0 W/m2 CLR
04:47 -6.6 °C -11.5 °C 34496.6 hPa Calm     57 % 0 mm 0.0 W/m2 CLR
04:52 -6.7 °C -11.4 °C 34496.6 hPa Calm     58 % 0 mm 0.0 W/m2 CLR
04:57 -6.8 °C -11.6 °C 34496.6 hPa Calm     58 % 0 mm 0.0 W/m2 CLR
05:02 -6.9 °C -11.6 °C 34496.6 hPa Calm     58 % 0 mm 0.0 W/m2 CLR
05:07 -7 °C -11.8 °C 34496.6 hPa Calm     57 % 0 mm 0.0 W/m2 CLR
05:13 -7 °C -11.8 °C 34496.6 hPa Calm     57 % 0 mm 0.0 W/m2 CLR
05:18 -7.1 °C -11.9 °C 34496.6 hPa Calm     57 % 0 mm 0.0 W/m2 CLR
05:22 -7.1 °C -12.1 °C 34496.6 hPa Calm     56 % 0 mm 0.0 W/m2 CLR
05:23 -7.1 °C -12.1 °C 34496.6 hPa Calm     56 % 0 mm 0.0 W/m2 CLR
05:27 -7.1 °C -12.3 °C 34496.6 hPa Calm     55 % 0 mm 0.0 W/m2 CLR
05:32 -7.2 °C -12.2 °C 34496.6 hPa Calm     56 % 0 mm 0.0 W/m2 CLR
05:37 -7.2 °C -12.1 °C 34496.6 hPa Calm     57 % 0 mm 0.0 W/m2 CLR
05:42 -7.3 °C -12.3 °C 34496.6 hPa Calm     56 % 0 mm 0.0 W/m2 CLR
05:47 -7.4 °C -12.2 °C 34496.6 hPa Calm     57 % 0 mm 0.0 W/m2 CLR
05:52 -7.4 °C -12.3 °C 34496.6 hPa Calm     57 % 0 mm 0.0 W/m2 CLR
05:57 -7.5 °C -12.3 °C 34496.6 hPa Calm     57 % 0 mm 0.0 W/m2 CLR
05:58 -7.5 °C -12.3 °C 34496.6 hPa Calm     57 % 0 mm 0.0 W/m2 CLR
06:03 -7.6 °C -12.3 °C 34496.6 hPa Calm     57 % 0 mm 0.0 W/m2 CLR
06:08 -7.5 °C -12.3 °C 34496.6 hPa Calm     57 % 0 mm 0.0 W/m2 CLR
06:13 -7.5 °C -12.3 °C 34496.6 hPa Calm     57 % 0 mm 0.0 W/m2 CLR
06:18 -7.6 °C -12.4 °C 34496.6 hPa Calm     57 % 0 mm 0.0 W/m2 CLR
06:23 -7.7 °C -12.4 °C 34496.6 hPa Calm     58 % 0 mm 0.0 W/m2 CLR
06:28 -7.8 °C -12.3 °C 34510.1 hPa Calm     59 % 0 mm 0.0 W/m2 CLR
06:33 -7.9 °C -12.1 °C 34510.1 hPa Calm     61 % 0 mm 0.0 W/m2 CLR
06:38 -8 °C -12.4 °C 34510.1 hPa Calm     60 % 0 mm 0.0 W/m2 CLR
06:43 -8 °C -12.4 °C 34510.1 hPa SW 9 km/h 9.7 km/h 60 % 0 mm 0.0 W/m2 CLR
06:48 -8 °C -12.4 °C 34510.1 hPa Calm     60 % 0 mm 0.0 W/m2 CLR
06:53 -8.1 °C -12.4 °C 34510.1 hPa Calm     60 % 0 mm 0.0 W/m2 CLR
06:58 -8.2 °C -12.5 °C 34510.1 hPa Calm     60 % 0 mm 0.0 W/m2 CLR
07:03 -8.2 °C -12.4 °C 34510.1 hPa Calm     61 % 0 mm 0.0 W/m2 OVC
07:08 -8.3 °C -12.6 °C 34510.1 hPa Calm     61 % 0 mm 0.0 W/m2 OVC
07:13 -8.4 °C -12.6 °C 34510.1 hPa Calm     61 % 0 mm 5.0 W/m2 OVC
07:18 -8.4 °C -12.6 °C 34510.1 hPa Calm     61 % 0 mm 9.0 W/m2 BKN
07:23 -8.4 °C -12.6 °C 34510.1 hPa Calm     61 % 0 mm 12.0 W/m2 BKN
07:28 -8.4 °C -12.6 °C 34510.1 hPa Calm     61 % 0 mm 18.0 W/m2 BKN
07:33 -8.4 °C -12.6 °C 34510.1 hPa Calm     61 % 0 mm 21.0 W/m2 BKN
07:38 -8.4 °C -12.6 °C 34510.1 hPa Calm     61 % 0 mm 23.0 W/m2 BKN
07:43 -8.4 °C -12.6 °C 34520.3 hPa SW 9 km/h 9 km/h 61 % 0 mm 28.0 W/m2 BKN
07:48 -8.4 °C -12.6 °C 34510.1 hPa Calm     61 % 0 mm 33.0 W/m2 BKN
07:53 -8.4 °C -12.6 °C 34520.3 hPa Calm     61 % 0 mm 39.0 W/m2 BKN
07:58 -8.3 °C -12.5 °C 34520.3 hPa Calm     61 % 0 mm 54.0 W/m2 SCT
08:03 -8.2 °C -12.6 °C 34510.1 hPa Calm     60 % 0 mm 58.0 W/m2 SCT
08:08 -8.1 °C -12.4 °C 34510.1 hPa Calm     60 % 0 mm 74.0 W/m2 FEW
08:13 -7.9 °C -12.4 °C 34520.3 hPa Calm     59 % 0 mm 93.0 W/m2 FEW
08:18 -7.8 °C -12.3 °C 34520.3 hPa Calm     59 % 0 mm 111.0 W/m2 CLR
08:23 -7.7 °C -12.4 °C 34520.3 hPa Calm     58 % 0 mm 125.0 W/m2 CLR
08:28 -7.6 °C -12.2 °C 34520.3 hPa Calm     58 % 0 mm 137.0 W/m2 CLR
08:33 -7.4 °C -12.2 °C 34520.3 hPa Calm     57 % 0 mm 156.0 W/m2 CLR
08:38 -7.2 °C -12.1 °C 34520.3 hPa Calm     57 % 0 mm 178.0 W/m2 CLR
08:43 -6.9 °C -12.1 °C 34520.3 hPa Calm     55 % 0 mm 193.0 W/m2 CLR
08:48 -6.6 °C -11.9 °C 34520.3 hPa Calm     54 % 0 mm 211.0 W/m2 CLR
08:53 -6.3 °C -11.9 °C 34520.3 hPa Calm     52 % 0 mm 227.0 W/m2 CLR
08:58 -6.1 °C -11.4 °C 34520.3 hPa Calm     54 % 0 mm 241.0 W/m2 CLR
09:03 -5.9 °C -11 °C 34520.3 hPa Calm     56 % 0 mm 255.0 W/m2 CLR
09:08 -5.7 °C -11 °C 34520.3 hPa Calm     55 % 0 mm 258.0 W/m2 CLR
09:13 -5.6 °C -10.7 °C 34520.3 hPa Calm     56 % 0 mm 287.0 W/m2 CLR
09:18 -5.4 °C -10.9 °C 34520.3 hPa Calm     54 % 0 mm 283.0 W/m2 CLR
09:23 -5.2 °C -10.9 °C 34520.3 hPa Calm     52 % 0 mm 97.0 W/m2 CLR
09:28 -4.9 °C -10.8 °C 34520.3 hPa Calm     51 % 0 mm 338.0 W/m2 CLR
09:33 -4.7 °C -11 °C 34510.1 hPa Calm     49 % 0 mm 353.0 W/m2 CLR
09:38 -4.6 °C -10.9 °C 34520.3 hPa Calm     49 % 0 mm 367.0 W/m2 CLR
09:43 -4.5 °C -11.2 °C 34520.3 hPa Calm     47 % 0 mm 383.0 W/m2 CLR
09:48 -4.3 °C -11.4 °C 34520.3 hPa Calm     45 % 0 mm 403.0 W/m2 CLR
09:53 -4.1 °C -12 °C 34510.1 hPa Calm     41 % 0 mm 417.0 W/m2 CLR
09:58 -3.8 °C -11.5 °C 34520.3 hPa Calm     42 % 0 mm 431.0 W/m2 CLR
10:03 -3.6 °C -11.5 °C 34520.3 hPa Calm     41 % 0 mm 446.0 W/m2 CLR
10:08 -3.4 °C -11.8 °C 34520.3 hPa Calm     39 % 0 mm 462.0 W/m2 CLR
10:13 -3.2 °C -13.5 °C 34520.3 hPa WNW 11.9 km/h 11.9 km/h 31 % 0 mm 480.0 W/m2 CLR
10:18 -3.2 °C -13.9 °C 34520.3 hPa WNW 20.9 km/h 20.9 km/h 29 % 0 mm 492.0 W/m2 CLR
10:23 -3.1 °C -14.2 °C 34510.1 hPa WNW 20.9 km/h 20.9 km/h 28 % 0 mm 506.0 W/m2 CLR
10:28 -3 °C -14.1 °C 34520.3 hPa WNW 20.9 km/h 20.9 km/h 28 % 0 mm 524.0 W/m2 CLR
10:33 -2.9 °C -14 °C 34520.3 hPa NW 17.9 km/h 17.9 km/h 28 % 0 mm 536.0 W/m2 CLR
10:38 -2.9 °C -14 °C 34520.3 hPa NNW 11.9 km/h 11.9 km/h 28 % 0 mm 550.0 W/m2 CLR
10:39 -2.9 °C -14 °C 34520.3 hPa NW 11.9 km/h 11.9 km/h 28 % 0 mm 550.0 W/m2 CLR
10:44 -2.7 °C -13.9 °C 34520.3 hPa WNW 12.9 km/h 12.9 km/h 28 % 0 mm 566.0 W/m2 CLR
10:49 -2.7 °C -13.8 °C 34520.3 hPa WNW 3.1 km/h 3.1 km/h 28 % 0 mm 577.0 W/m2 CLR
10:54 -2.6 °C -14.1 °C 34510.1 hPa West 15.6 km/h 15.6 km/h 27 % 0 mm 592.0 W/m2 CLR
10:55 -2.6 °C -14.3 °C 34510.1 hPa WSW 15 km/h 15 km/h 26 % 0 mm 598.0 W/m2 CLR
11:00 -2.5 °C -14 °C 34510.1 hPa NW 11.9 km/h 11.9 km/h 27 % 0 mm 612.0 W/m2 CLR
11:05 -2.4 °C -14.5 °C 34510.1 hPa WNW 11.9 km/h 11.9 km/h 25 % 0 mm 624.0 W/m2 CLR
11:10 -2.3 °C -14.1 °C 34510.1 hPa West 15.6 km/h 15.6 km/h 26 % 0 mm 635.0 W/m2 CLR
11:15 -2.1 °C -14.3 °C 34510.1 hPa SSE 3.1 km/h 3.1 km/h 25 % 0 mm 650.0 W/m2 CLR
11:20 -1.9 °C -14.1 °C 34510.1 hPa NW 10.3 km/h 10.3 km/h 25 % 0 mm 661.0 W/m2 CLR
11:25 -1.8 °C -14.4 °C 34510.1 hPa West 15 km/h 15 km/h 24 % 0 mm 671.0 W/m2 CLR
11:30 -1.8 °C -14.7 °C 34510.1 hPa South 11.9 km/h 11.9 km/h 23 % 0 mm 682.0 W/m2 CLR
11:35 -1.7 °C -14.6 °C 34510.1 hPa Calm     23 % 0 mm 694.0 W/m2 CLR
11:36 -1.7 °C -14.6 °C 34510.1 hPa Calm     23 % 0 mm 696.0 W/m2 CLR
11:41 -1.5 °C -14.8 °C 34496.6 hPa South 11.9 km/h   22 % 0 mm 708.0 W/m2 CLR
11:46 -1.4 °C -14.8 °C 34496.6 hPa SW 9 km/h 9 km/h 22 % 0 mm 717.0 W/m2 CLR
11:51 -1.3 °C -14.7 °C 34496.6 hPa West 11.9 km/h 11.9 km/h 22 % 0 mm 728.0 W/m2 CLR
11:56 -1.3 °C -14.6 °C 34496.6 hPa NW 9 km/h 9 km/h 22 % 0 mm 737.0 W/m2 CLR
12:01 -1.3 °C -14.6 °C 34496.6 hPa WNW 10.3 km/h 10.3 km/h 22 % 0 mm 744.0 W/m2 CLR
12:06 -1.3 °C -14.6 °C 34496.6 hPa Calm     22 % 0 mm 758.0 W/m2 CLR
12:11 -1.1 °C -14.8 °C 34486.4 hPa Calm     21 % 0 mm 765.0 W/m2 CLR
12:16 -0.9 °C -14.6 °C 34486.4 hPa SSW 6 km/h 6 km/h 21 % 0 mm 773.0 W/m2 CLR
12:21 -0.8 °C -14.6 °C 34486.4 hPa Calm     21 % 0 mm 777.0 W/m2 CLR
12:26 -0.4 °C -14.3 °C 34486.4 hPa NNE 11.9 km/h 11.9 km/h 21 % 0 mm 788.0 W/m2 CLR
12:31 -0.2 °C -14.1 °C 34486.4 hPa Calm     21 % 0 mm 796.0 W/m2 CLR
12:36 -0.3 °C -14.6 °C 34486.4 hPa SW 9 km/h 9 km/h 20 % 0 mm 803.0 W/m2 CLR
12:41 -0.3 °C -14.2 °C 34486.4 hPa ESE 3.1 km/h 3.1 km/h 21 % 0 mm 810.0 W/m2 CLR
12:46 -0.1 °C -14 °C 34486.4 hPa ENE 12.9 km/h 12.9 km/h 21 % 0 mm 817.0 W/m2 CLR
12:51 0 °C -14.3 °C 34476.3 hPa Calm     20 % 0 mm 819.0 W/m2 CLR
12:56 0.1 °C -14.2 °C 34476.3 hPa ENE 15 km/h 15 km/h 20 % 0 mm 824.0 W/m2 CLR
13:01 0.3 °C -14.1 °C 34476.3 hPa East 9 km/h 9 km/h 20 % 0 mm 831.0 W/m2 CLR
13:06 0.4 °C -14.4 °C 34476.3 hPa East 3.1 km/h 3.1 km/h 19 % 0 mm 838.0 W/m2 CLR
13:11 0.4 °C -14.4 °C 34476.3 hPa East 6 km/h 6 km/h 19 % 0 mm 842.0 W/m2 CLR
13:16 0.3 °C -14.1 °C 34462.7 hPa ENE 17.9 km/h 17.9 km/h 20 % 0 mm 846.0 W/m2 CLR
13:21 0.2 °C -14.1 °C 34462.7 hPa East 9 km/h   20 % 0 mm 849.0 W/m2 CLR
13:26 0.2 °C -14.2 °C 34462.7 hPa Calm     20 % 0 mm 853.0 W/m2 CLR
13:31 0.2 °C -13.8 °C 34462.7 hPa Calm     21 % 0 mm 853.0 W/m2 CLR
13:36 0.4 °C -14 °C 34462.7 hPa ESE 9 km/h 9 km/h 20 % 0 mm 858.0 W/m2 CLR
13:41 0.6 °C -13.8 °C 34462.7 hPa ENE 9 km/h 9 km/h 20 % 0 mm 858.0 W/m2 CLR
13:46 0.5 °C -13.9 °C 34452.6 hPa ENE 9 km/h   20 % 0 mm 861.0 W/m2 CLR
13:51 0.6 °C -13.8 °C 34452.6 hPa Calm     20 % 0 mm 865.0 W/m2 CLR
13:56 0.6 °C -13.8 °C 34452.6 hPa Calm     20 % 0 mm 865.0 W/m2 CLR
14:01 0.8 °C -13.7 °C 34452.6 hPa Calm     20 % 0 mm 867.0 W/m2 CLR
14:06 1 °C -13.5 °C 34452.6 hPa East 9 km/h 9 km/h 20 % 0 mm 868.0 W/m2 CLR
14:11 1 °C -13.5 °C 34452.6 hPa NE 3.1 km/h   20 % 0 mm 867.0 W/m2 CLR
14:16 1.1 °C -13.4 °C 34442.4 hPa NNE 10.3 km/h 10.3 km/h 20 % 0 mm 867.0 W/m2 CLR
14:21 1.2 °C -13.4 °C 34442.4 hPa NE 15.6 km/h 15.6 km/h 20 % 0 mm 865.0 W/m2 CLR
14:27 1.2 °C -12.9 °C 34442.4 hPa ENE 15.6 km/h 15.6 km/h 21 % 0 mm 861.0 W/m2 CLR
14:32 1.3 °C -12.8 °C 34442.4 hPa Calm     21 % 0 mm 863.0 W/m2 CLR
14:37 1.5 °C -12.7 °C 34428.8 hPa NE 15 km/h 15 km/h 21 % 0 mm 858.0 W/m2 CLR
14:42 1.6 °C -13.1 °C 34428.8 hPa NE 15 km/h 15 km/h 20 % 0 mm 856.0 W/m2 CLR
14:47 1.4 °C -12.7 °C 34428.8 hPa East 18.2 km/h 18.2 km/h 21 % 0 mm 851.0 W/m2 CLR
14:52 1.3 °C -12.8 °C 34428.8 hPa NNE 11.9 km/h 11.9 km/h 21 % 0 mm 846.0 W/m2 CLR
14:57 1.4 °C -12.7 °C 34418.7 hPa Calm     21 % 0 mm 840.0 W/m2 CLR
15:02 1.6 °C -12.6 °C 34418.7 hPa Calm     21 % 0 mm 837.0 W/m2 CLR
15:07 1.8 °C -12.4 °C 34418.7 hPa NE 12.9 km/h 12.9 km/h 21 % 0 mm 831.0 W/m2 CLR
15:12 1.7 °C -12.6 °C 34405.1 hPa NE 11.9 km/h 11.9 km/h 21 % 0 mm 831.0 W/m2 CLR
15:17 1.8 °C -12.4 °C 34405.1 hPa NNW 9 km/h 9 km/h 21 % 0 mm 821.0 W/m2 CLR
15:22 1.8 °C -12.4 °C 34405.1 hPa Calm     21 % 0 mm 817.0 W/m2 CLR
15:27 1.9 °C -12.3 °C 34405.1 hPa Calm     21 % 0 mm 812.0 W/m2 CLR
15:32 2.3 °C -12.1 °C 34405.1 hPa NE 25.9 km/h 25.9 km/h 21 % 0 mm 802.0 W/m2 CLR
15:37 2.3 °C -12 °C 34405.1 hPa Calm     21 % 0 mm 800.0 W/m2 CLR
15:42 2.4 °C -12.3 °C 34395 hPa Calm   2.3 km/h 20 % 0 mm 795.0 W/m2 CLR
15:43 2.4 °C -12.3 °C 34395 hPa ENE 12.9 km/h 12.9 km/h 20 % 0 mm 795.0 W/m2 CLR
15:48 2.4 °C -12.3 °C 34395 hPa NE 3.1 km/h   20 % 0 mm 782.0 W/m2 CLR
15:53 2.3 °C -12.4 °C 34395 hPa North 9 km/h   20 % 0 mm 777.0 W/m2 CLR
15:58 2.3 °C -12.4 °C 34395 hPa NE 11.9 km/h 11.9 km/h 20 % 0 mm 765.0 W/m2 CLR
16:03 2.3 °C -12 °C 34384.8 hPa Calm     21 % 0 mm 763.0 W/m2 CLR
16:08 2.5 °C -11.8 °C 34384.8 hPa NE 9 km/h 9 km/h 21 % 0 mm 752.0 W/m2 CLR
16:13 2.6 °C -11.8 °C 34384.8 hPa SSE 41.7 km/h 41.7 km/h 21 % 0 mm 740.0 W/m2 CLR
16:18 2.4 °C -11.9 °C 34384.8 hPa SE 20.9 km/h 20.9 km/h 21 % 0 mm 733.0 W/m2 CLR
16:23 2.2 °C -11.7 °C 34384.8 hPa ENE 11.9 km/h 11.9 km/h 22 % 0 mm 721.0 W/m2 CLR
16:28 2.2 °C -11.8 °C 34371.3 hPa SE 11.9 km/h 11.9 km/h 22 % 0 mm 710.0 W/m2 CLR
16:33 2.2 °C -11.8 °C 34371.3 hPa SE 20.9 km/h 20.9 km/h 22 % 0 mm 698.0 W/m2 CLR
16:38 2.2 °C -11.7 °C 34371.3 hPa Calm     22 % 0 mm 687.0 W/m2 CLR
16:43 2.3 °C -11.6 °C 34371.3 hPa ENE 29.8 km/h 29.8 km/h 22 % 0 mm 673.0 W/m2 CLR
16:48 2.4 °C -11.6 °C 34371.3 hPa Calm     22 % 0 mm 664.0 W/m2 CLR
16:53 2.4 °C -11.2 °C 34371.3 hPa SE 23.8 km/h 23.8 km/h 23 % 0 mm 654.0 W/m2 CLR
16:58 2.2 °C -11.3 °C 34371.3 hPa East 26.9 km/h 26.9 km/h 23 % 0 mm 643.0 W/m2 CLR
17:03 2.1 °C -11.1 °C 34361.1 hPa NNE 6 km/h   24 % 0 mm 629.0 W/m2 CLR
17:08 2.1 °C -11.4 °C 34361.1 hPa ENE 9 km/h 9 km/h 23 % 0 mm 613.0 W/m2 CLR
17:13 2.2 °C -11.3 °C 34361.1 hPa ENE 17.9 km/h 17.9 km/h 23 % 0 mm 599.0 W/m2 CLR
17:18 2.1 °C -10.7 °C 34361.1 hPa ESE 23.8 km/h 23.8 km/h 25 % 0 mm 585.0 W/m2 CLR
17:23 2.1 °C -10.8 °C 34361.1 hPa ESE 29.8 km/h 29.8 km/h 25 % 0 mm 571.0 W/m2 CLR
17:28 1.9 °C -10.6 °C 34361.1 hPa ESE 29.8 km/h 29.8 km/h 26 % 0 mm 554.0 W/m2 CLR
17:33 1.9 °C -10.6 °C 34361.1 hPa East 15 km/h 15 km/h 26 % 0 mm 541.0 W/m2 CLR
17:38 1.9 °C -10.6 °C 34361.1 hPa ESE 23.8 km/h 23.8 km/h 26 % 0 mm 529.0 W/m2 CLR
17:43 1.9 °C -10.2 °C 34361.1 hPa East 11.9 km/h 11.9 km/h 27 % 0 mm 519.0 W/m2 CLR
17:48 1.8 °C -10.3 °C 34361.1 hPa East 15 km/h 15 km/h 27 % 0 mm 503.0 W/m2 CLR
17:53 1.7 °C -10.1 °C 34347.6 hPa SSE 10.3 km/h 10.3 km/h 28 % 0 mm 483.0 W/m2 CLR
17:58 1.7 °C -9.8 °C 34347.6 hPa East 32.8 km/h 32.8 km/h 29 % 0 mm 468.0 W/m2 CLR
18:03 1.6 °C -9.6 °C 34347.6 hPa ESE 29.8 km/h 29.8 km/h 30 % 0 mm 454.0 W/m2 CLR
18:08 1.4 °C -9.7 °C 34347.6 hPa ESE 23.3 km/h 23.3 km/h 30 % 0 mm 439.0 W/m2 CLR
18:13 1.5 °C -9.7 °C 34347.6 hPa ESE 20.9 km/h 20.9 km/h 30 % 0 mm 422.0 W/m2 CLR
18:18 1.5 °C -9.4 °C 34347.6 hPa ESE 20.9 km/h 20.9 km/h 31 % 0 mm 406.0 W/m2 CLR
18:23 1.5 °C -9.4 °C 34347.6 hPa ESE 23.3 km/h 23.3 km/h 31 % 0 mm 390.0 W/m2 CLR
18:28 1.3 °C -9.2 °C 34347.6 hPa East 26.9 km/h 26.9 km/h 32 % 0 mm 378.0 W/m2 CLR
18:33 1.3 °C -9.1 °C 34347.6 hPa East 26.9 km/h 26.9 km/h 33 % 0 mm 359.0 W/m2 CLR
18:38 1.2 °C -8.8 °C 34347.6 hPa East 25.9 km/h 25.9 km/h 34 % 0 mm 343.0 W/m2 CLR
18:43 1.2 °C -8.8 °C 34347.6 hPa East 23.8 km/h 23.8 km/h 34 % 0 mm 329.0 W/m2 CLR
18:48 1.1 °C -8.7 °C 34347.6 hPa East 18.2 km/h 18.2 km/h 35 % 0 mm 313.0 W/m2 CLR
18:53 1.1 °C -8.7 °C 34347.6 hPa East 26.9 km/h 26.9 km/h 35 % 0 mm 294.0 W/m2 CLR
18:58 1.1 °C -8.7 °C 34347.6 hPa East 29.8 km/h 29.8 km/h 35 % 0 mm 279.0 W/m2 CLR
19:03 1 °C -8.5 °C 34347.6 hPa East 17.9 km/h 17.9 km/h 36 % 0 mm 265.0 W/m2 CLR
19:08 0.9 °C -8.4 °C 34347.6 hPa East 17.9 km/h 17.9 km/h 37 % 0 mm 251.0 W/m2 CLR
19:13 0.9 °C -8.4 °C 34347.6 hPa East 26.9 km/h 26.9 km/h 37 % 0 mm 236.0 W/m2 CLR
19:18 0.8 °C -8.2 °C 34347.6 hPa ESE 23.8 km/h 23.8 km/h 38 % 0 mm 213.0 W/m2 CLR
19:23 0.8 °C -8.5 °C 34347.6 hPa SE 20.9 km/h 20.9 km/h 37 % 0 mm 195.0 W/m2 CLR
19:28 0.8 °C -8.3 °C 34347.6 hPa ESE 10.3 km/h 10.3 km/h 38 % 0 mm 179.0 W/m2 CLR
19:33 0.7 °C -8.1 °C 34347.6 hPa ENE 17.9 km/h 17.9 km/h 39 % 0 mm 163.0 W/m2 CLR
19:38 0.6 °C -8.2 °C 34347.6 hPa East 17.9 km/h 17.9 km/h 39 % 0 mm 144.0 W/m2 CLR
19:43 0.4 °C -8.1 °C 34347.6 hPa East 15 km/h 15 km/h 40 % 0 mm 127.0 W/m2 CLR
19:48 0.3 °C -8 °C 34347.6 hPa East 29.8 km/h 29.8 km/h 41 % 0 mm 111.0 W/m2 CLR
19:53 0.1 °C -7.9 °C 34347.6 hPa ESE 18.2 km/h 18.2 km/h 42 % 0 mm 98.0 W/m2 CLR
19:58 0 °C -7.9 °C 34347.6 hPa East 15 km/h 15 km/h 43 % 0 mm 84.0 W/m2 FEW
20:03 -0.1 °C -7.8 °C 34347.6 hPa ESE 20.9 km/h 20.9 km/h 44 % 0 mm 70.0 W/m2 FEW
20:08 -0.2 °C -7.8 °C 34347.6 hPa East 17.9 km/h 17.9 km/h 44 % 0 mm 58.0 W/m2 SCT
20:14 -0.2 °C -7.9 °C 34347.6 hPa ESE 11.9 km/h 11.9 km/h 44 % 0 mm 44.0 W/m2 SCT
20:19 -0.3 °C -7.9 °C 34361.1 hPa ESE 12.9 km/h 12.9 km/h 44 % 0 mm 35.0 W/m2 BKN
20:24 -0.4 °C -8 °C 34361.1 hPa ESE 20.9 km/h 20.9 km/h 44 % 0 mm 28.0 W/m2 BKN
20:29 -0.4 °C -8.1 °C 34361.1 hPa ESE 20.9 km/h 20.9 km/h 44 % 0 mm 23.0 W/m2 BKN
20:34 -0.4 °C -8.1 °C 34361.1 hPa SE 20.9 km/h 20.9 km/h 44 % 0 mm 18.0 W/m2 BKN
20:39 -0.5 °C -8.1 °C 34361.1 hPa SE 18.2 km/h 18.2 km/h 44 % 0 mm 12.0 W/m2 BKN
20:44 -0.6 °C -8.2 °C 34361.1 hPa SSE 15 km/h 15 km/h 44 % 0 mm 9.0 W/m2 BKN
20:49 -0.6 °C -8.2 °C 34361.1 hPa ESE 15 km/h 15 km/h 44 % 0 mm 5.0 W/m2 BKN
20:54 -0.7 °C -8.3 °C 34361.1 hPa SSE 10.3 km/h 10.3 km/h 44 % 0 mm 0.0 W/m2 OVC
20:59 -0.7 °C -8.1 °C 34361.1 hPa SSE 18.2 km/h 18.2 km/h 45 % 0 mm 0.0 W/m2 OVC
21:04 -0.8 °C -8.2 °C 34361.1 hPa SE 20.9 km/h 20.9 km/h 45 % 0 mm 0.0 W/m2 CLR
21:09 -0.9 °C -8.3 °C 34371.3 hPa SE 9 km/h 9 km/h 45 % 0 mm 0.0 W/m2 CLR
21:14 -1 °C -8.2 °C 34371.3 hPa SE 17.9 km/h 17.9 km/h 46 % 0 mm 0.0 W/m2 CLR
21:19 -1.1 °C -8.1 °C 34371.3 hPa SSE 17.9 km/h 17.9 km/h 47 % 0 mm 0.0 W/m2 CLR
21:24 -1.2 °C -8.2 °C 34371.3 hPa SSE 17.9 km/h 17.9 km/h 47 % 0 mm 0.0 W/m2 CLR
21:29 -1.3 °C -8.1 °C 34371.3 hPa SSE 11.9 km/h 11.9 km/h 48 % 0 mm 0.0 W/m2 CLR
21:34 -1.4 °C -8.2 °C 34371.3 hPa SE 17.9 km/h 17.9 km/h 48 % 0 mm 0.0 W/m2 CLR
21:39 -1.5 °C -8.1 °C 34371.3 hPa South 11.9 km/h 11.9 km/h 49 % 0 mm 0.0 W/m2 CLR
21:44 -1.6 °C -8.1 °C 34371.3 hPa SE 15.6 km/h 15.6 km/h 49 % 0 mm 0.0 W/m2 CLR
21:49 -1.6 °C -8.2 °C 34371.3 hPa SE 11.9 km/h 11.9 km/h 49 % 0 mm 0.0 W/m2 CLR
21:54 -1.7 °C -8.1 °C 34384.8 hPa SSE 15 km/h 15 km/h 50 % 0 mm 0.0 W/m2 CLR
21:59 -1.8 °C -8.2 °C 34384.8 hPa SSE 15 km/h 15 km/h 50 % 0 mm 0.0 W/m2 CLR
22:04 -1.8 °C -8 °C 34384.8 hPa SE 18.2 km/h 18.2 km/h 51 % 0 mm 0.0 W/m2 CLR
22:09 -1.9 °C -8.1 °C 34384.8 hPa SE 20.9 km/h 20.9 km/h 51 % 0 mm 0.0 W/m2 CLR
22:14 -2 °C -8.2 °C 34384.8 hPa ESE 6 km/h 6 km/h 51 % 0 mm 0.0 W/m2 CLR
22:19 -2.1 °C -8.1 °C 34384.8 hPa Calm     52 % 0 mm 0.0 W/m2 CLR
22:24 -2.2 °C -8.2 °C 34384.8 hPa ESE 6 km/h 6 km/h 52 % 0 mm 0.0 W/m2 CLR
22:29 -2.3 °C -8.1 °C 34384.8 hPa Calm     53 % 0 mm 0.0 W/m2 CLR
22:34 -2.3 °C -8.2 °C 34384.8 hPa Calm     53 % 0 mm 0.0 W/m2 CLR
22:39 -2.4 °C -8.2 °C 34384.8 hPa Calm     53 % 0 mm 0.0 W/m2 CLR
22:44 -2.5 °C -8.3 °C 34384.8 hPa Calm     53 % 0 mm 0.0 W/m2 CLR
22:49 -2.6 °C -8.2 °C 34395 hPa Calm     54 % 0 mm 0.0 W/m2 CLR
22:54 -2.7 °C -8.3 °C 34395 hPa Calm     54 % 0 mm 0.0 W/m2 CLR
22:59 -2.7 °C -8 °C 34384.8 hPa Calm     56 % 0 mm 0.0 W/m2 CLR
23:04 -2.8 °C -8.1 °C 34395 hPa Calm     56 % 0 mm 0.0 W/m2 CLR
23:09 -2.9 °C -8 °C 34395 hPa Calm     57 % 0 mm 0.0 W/m2 CLR
23:14 -3 °C -8.1 °C 34395 hPa Calm     57 % 0 mm 0.0 W/m2 CLR
23:19 -3.1 °C -7.9 °C 34395 hPa Calm     59 % 0 mm 0.0 W/m2 CLR
23:24 -3.2 °C -7.8 °C 34395 hPa Calm     60 % 0 mm 0.0 W/m2 CLR
23:29 -3.3 °C -7.9 °C 34395 hPa Calm     60 % 0 mm 0.0 W/m2 CLR
23:34 -3.3 °C -7.8 °C 34395 hPa Calm     61 % 0 mm 0.0 W/m2 CLR
23:39 -3.4 °C -7.9 °C 34395 hPa Calm     61 % 0 mm 0.0 W/m2 CLR
23:44 -3.5 °C -7.9 °C 34395 hPa Calm     62 % 0 mm 0.0 W/m2 CLR
23:49 -3.6 °C -7.7 °C 34395 hPa Calm     63 % 0 mm 0.0 W/m2 CLR
23:54 -3.6 °C -7.8 °C 34395 hPa Calm     63 % 0 mm 0.0 W/m2 CLR
23:59 -3.6 °C -7.8 °C 34395 hPa Calm     63 % 0 mm 0.0 W/m2 CLR
Lo Temps de Massalio
Compliments of Weather Underground - 1.25 mb